createdAt,value
2022-09-22T00:01:31.654Z,99237.06
2022-09-22T00:04:00.256Z,99252.63
2022-09-22T00:06:31.566Z,99253.44
2022-09-22T00:09:00.998Z,99256.06
2022-09-22T00:11:29.374Z,99262.97
2022-09-22T00:14:00.377Z,99258.63
2022-09-22T00:16:28.807Z,99265.56
2022-09-22T00:18:55.447Z,99256.03
2022-09-22T00:21:23.037Z,99262.97
2022-09-22T00:23:50.265Z,99258.63
2022-09-22T00:26:18.388Z,99255.19
2022-09-22T00:28:45.594Z,99256.03
2022-09-22T00:31:13.499Z,99252.63
2022-09-22T00:33:41.429Z,99256.13
2022-09-22T00:36:08.900Z,99258.75
2022-09-22T00:38:35.622Z,99262.19
2022-09-22T00:41:02.270Z,99261.38
2022-09-22T00:43:30.700Z,99256.19
2022-09-22T00:46:00.246Z,99257.91
2022-09-22T00:48:29.688Z,99246.72
2022-09-22T00:50:58.109Z,99246.72
2022-09-22T00:53:25.391Z,99246.72
2022-09-22T00:55:56.104Z,99241.53
2022-09-22T00:58:26.506Z,99235.44
2022-09-22T01:00:53.349Z,99239.75
2022-09-22T01:03:24.029Z,99242.38
2022-09-22T01:05:56.345Z,99246.72
2022-09-22T01:08:24.600Z,99250.19
2022-09-22T01:10:52.291Z,99239.81
2022-09-22T01:13:19.252Z,99244.97
2022-09-22T01:16:05.234Z,99245.81
2022-09-22T01:18:56.739Z,99244.94
2022-09-22T01:21:36.928Z,99253.56
2022-09-22T01:24:22.069Z,99255.31
2022-09-22T01:26:57.534Z,99255.28
2022-09-22T01:29:29.976Z,99253.56
2022-09-22T01:32:05.980Z,99248.38
2022-09-22T01:34:52.744Z,99251.81
2022-09-22T01:37:25.121Z,99249.19
2022-09-22T01:39:54.409Z,99238.84
2022-09-22T01:42:24.594Z,99239.75
2022-09-22T01:44:57.801Z,99238.84
2022-09-22T01:47:24.310Z,99231.97
2022-09-22T01:49:52.316Z,99237.16
2022-09-22T01:52:21.391Z,99230.22
2022-09-22T01:55:08.136Z,99233.66
2022-09-22T01:57:51.504Z,99239.75
2022-09-22T02:00:18.969Z,99240.59
2022-09-22T02:02:51.565Z,99246.63
2022-09-22T02:05:21.814Z,99243.19
2022-09-22T02:07:49.999Z,99250.97
2022-09-22T02:10:19.099Z,99249.19
2022-09-22T02:12:47.572Z,99244.00
2022-09-22T02:15:32.498Z,99254.38
2022-09-22T02:18:02.087Z,99252.59
2022-09-22T02:20:28.907Z,99253.44
2022-09-22T02:22:55.763Z,99258.63
2022-09-22T02:25:25.075Z,99251.75
2022-09-22T02:27:53.596Z,99251.69
2022-09-22T02:30:20.237Z,99249.16
2022-09-22T02:32:48.170Z,99250.03
2022-09-22T02:35:14.892Z,99250.00
2022-09-22T02:37:50.740Z,99252.59
2022-09-22T02:40:17.294Z,99251.75
2022-09-22T02:42:48.029Z,99246.56
2022-09-22T02:45:23.513Z,99248.28
2022-09-22T02:47:53.106Z,99243.09
2022-09-22T02:50:22.338Z,99241.38
2022-09-22T02:52:51.620Z,99234.47
2022-09-22T02:55:18.518Z,99236.22
2022-09-22T02:57:45.061Z,99243.09
2022-09-22T03:00:11.844Z,99249.16
2022-09-22T03:02:38.472Z,99250.03
2022-09-22T03:05:05.252Z,99245.69
2022-09-22T03:07:31.928Z,99255.22
2022-09-22T03:09:58.543Z,99259.53
2022-09-22T03:12:25.108Z,99264.72
2022-09-22T03:14:51.655Z,99270.75
2022-09-22T03:17:18.244Z,99269.91
2022-09-22T03:19:44.875Z,99265.56
2022-09-22T03:22:11.460Z,99272.50
2022-09-22T03:24:38.004Z,99270.75
2022-09-22T03:27:04.581Z,99277.69
2022-09-22T03:29:31.229Z,99277.69
2022-09-22T03:31:57.809Z,99274.22
2022-09-22T03:34:24.340Z,99275.09
2022-09-22T03:36:51.132Z,99285.47
2022-09-22T03:39:17.682Z,99277.72
2022-09-22T03:41:44.413Z,99289.84
2022-09-22T03:44:10.954Z,99281.22
2022-09-22T03:46:37.472Z,99276.03
2022-09-22T03:49:04.069Z,99270.84
2022-09-22T03:51:31.030Z,99269.97
2022-09-22T03:53:57.661Z,99273.44
2022-09-22T03:56:24.345Z,99278.63
2022-09-22T03:58:50.904Z,99276.88
2022-09-22T04:01:17.483Z,99267.34
2022-09-22T04:03:44.132Z,99281.22
2022-09-22T04:06:10.846Z,99278.63
2022-09-22T04:08:37.468Z,99274.31
2022-09-22T04:11:04.634Z,99265.69
2022-09-22T04:13:31.307Z,99276.03
2022-09-22T04:15:57.877Z,99271.69
2022-09-22T04:18:24.843Z,99278.56
2022-09-22T04:20:57.164Z,99275.09
2022-09-22T04:23:24.520Z,99275.94
2022-09-22T04:25:51.080Z,99278.53
2022-09-22T04:28:18.571Z,99283.72
2022-09-22T04:30:45.170Z,99269.03
2022-09-22T04:33:11.780Z,99269.03
2022-09-22T04:35:38.327Z,99269.91
2022-09-22T04:38:05.222Z,99270.75
2022-09-22T04:40:31.818Z,99274.22
2022-09-22T04:42:58.390Z,99274.22
2022-09-22T04:45:24.928Z,99282.88
2022-09-22T04:47:52.868Z,99282.81
2022-09-22T04:50:20.449Z,99278.50
2022-09-22T04:52:47.938Z,99275.88
2022-09-22T04:55:15.601Z,99275.81
2022-09-22T04:57:43.316Z,99279.28
2022-09-22T05:00:10.151Z,99284.47
2022-09-22T05:02:36.691Z,99284.47
2022-09-22T05:05:03.340Z,99276.66
2022-09-22T05:07:30.283Z,99277.50
2022-09-22T05:09:56.952Z,99285.28
2022-09-22T05:12:23.506Z,99284.44
2022-09-22T05:14:50.095Z,99285.28
2022-09-22T05:17:16.772Z,99285.31
2022-09-22T05:19:43.327Z,99278.38
2022-09-22T05:22:10.064Z,99284.44
2022-09-22T05:24:36.644Z,99280.06
2022-09-22T05:27:03.323Z,99274.91
2022-09-22T05:29:30.392Z,99270.56
2022-09-22T05:31:56.978Z,99267.09
2022-09-22T05:34:23.566Z,99267.00
2022-09-22T05:36:50.132Z,99268.72
2022-09-22T05:39:16.656Z,99261.75
2022-09-22T05:41:43.260Z,99264.28
2022-09-22T05:44:09.839Z,99264.25
2022-09-22T05:46:36.439Z,99266.75
2022-09-22T05:49:03.106Z,99268.44
2022-09-22T05:51:29.663Z,99271.88
2022-09-22T05:53:56.473Z,99277.88
2022-09-22T05:56:23.044Z,99273.50
2022-09-22T05:58:49.766Z,99269.19
2022-09-22T06:01:16.403Z,99272.66
2022-09-22T06:03:43.089Z,99275.25
2022-09-22T06:06:09.737Z,99282.16
2022-09-22T06:08:36.354Z,99274.31
2022-09-22T06:11:02.975Z,99275.16
2022-09-22T06:13:30.025Z,99264.63
2022-09-22T06:15:56.565Z,99273.22
2022-09-22T06:18:25.318Z,99263.63
2022-09-22T06:20:51.898Z,99267.88
2022-09-22T06:23:18.448Z,99271.31
2022-09-22T06:25:45.107Z,99266.94
2022-09-22T06:28:14.497Z,99278.19
2022-09-22T06:30:41.525Z,99273.88
2022-09-22T06:33:09.023Z,99267.84
2022-09-22T06:35:37.815Z,99274.78
2022-09-22T06:38:06.407Z,99266.09
2022-09-22T06:40:33.652Z,99267.00
2022-09-22T06:43:10.360Z,99267.78
2022-09-22T06:45:37.038Z,99266.00
2022-09-22T06:48:08.977Z,99274.63
2022-09-22T06:50:36.476Z,99279.75
2022-09-22T06:53:04.782Z,99271.97
2022-09-22T06:55:31.514Z,99276.25
2022-09-22T06:58:02.818Z,99283.16
2022-09-22T07:00:33.778Z,99270.97
2022-09-22T07:03:05.205Z,99277.91
2022-09-22T07:05:32.412Z,99274.47
2022-09-22T07:07:59.036Z,99276.13
2022-09-22T07:10:25.693Z,99274.16
2022-09-22T07:12:52.263Z,99282.63
2022-09-22T07:15:18.828Z,99274.72
2022-09-22T07:17:45.532Z,99272.09
2022-09-22T07:20:12.898Z,99282.50
2022-09-22T07:22:39.443Z,99273.94
2022-09-22T07:25:09.083Z,99285.28
2022-09-22T07:27:35.643Z,99283.53
2022-09-22T07:30:02.500Z,99280.94
2022-09-22T07:32:35.174Z,99280.94
2022-09-22T07:35:02.233Z,99275.75
2022-09-22T07:37:33.246Z,99285.31
2022-09-22T07:40:00.968Z,99294.81
2022-09-22T07:42:27.591Z,99296.41
2022-09-22T07:45:12.913Z,99287.63
2022-09-22T07:47:58.163Z,99299.63
2022-09-22T07:50:24.740Z,99299.53
2022-09-22T07:52:52.524Z,99302.88
2022-09-22T07:55:22.252Z,99302.06
2022-09-22T07:57:56.020Z,99294.38
2022-09-22T08:00:27.262Z,99306.72
2022-09-22T08:02:57.947Z,99306.81
2022-09-22T08:05:25.561Z,99304.19
2022-09-22T08:07:52.159Z,99299.81
2022-09-22T08:10:19.197Z,99296.31
2022-09-22T08:12:45.982Z,99297.97
2022-09-22T08:15:12.762Z,99292.72
2022-09-22T08:17:40.249Z,99292.72
2022-09-22T08:20:07.887Z,99292.66
2022-09-22T08:22:35.200Z,99295.31
2022-09-22T08:25:01.887Z,99304.94
2022-09-22T08:27:29.961Z,99295.34
2022-09-22T08:29:56.809Z,99291.00
2022-09-22T08:32:26.705Z,99294.56
2022-09-22T08:34:57.922Z,99297.97
2022-09-22T08:37:25.180Z,99306.59
2022-09-22T08:39:51.751Z,99309.97
2022-09-22T08:42:22.083Z,99313.41
2022-09-22T08:45:27.297Z,99310.66
2022-09-22T08:48:16.269Z,99315.00
2022-09-22T08:51:16.299Z,99306.38
2022-09-22T08:53:52.616Z,99316.84
2022-09-22T08:56:29.238Z,99315.19
2022-09-22T08:58:59.054Z,99319.56
2022-09-22T09:01:31.385Z,99325.69
2022-09-22T09:04:13.888Z,99319.59
2022-09-22T09:06:49.238Z,99318.72
2022-09-22T09:09:21.985Z,99325.63
2022-09-22T09:11:51.138Z,99328.31
2022-09-22T09:14:26.631Z,99327.50
2022-09-22T09:16:59.419Z,99325.75
2022-09-22T09:19:32.114Z,99315.34
2022-09-22T09:22:02.399Z,99326.50
2022-09-22T09:27:26.621Z,99321.44
2022-09-22T09:29:56.001Z,99318.78
2022-09-22T09:32:33.220Z,99317.00
2022-09-22T09:35:00.621Z,99316.91
2022-09-22T09:37:28.565Z,99312.44
2022-09-22T09:39:55.904Z,99312.41
2022-09-22T09:42:22.482Z,99312.41
2022-09-22T09:44:53.532Z,99308.06
2022-09-22T09:47:43.264Z,99316.78
2022-09-22T09:50:11.143Z,99311.50
2022-09-22T09:52:38.927Z,99313.19
2022-09-22T09:55:18.714Z,99315.59
2022-09-22T09:58:03.500Z,99316.25
2022-09-22T10:00:32.873Z,99313.59
2022-09-22T10:03:17.141Z,99317.84
2022-09-22T10:05:44.186Z,99310.81
2022-09-22T10:08:16.473Z,99309.75
2022-09-22T10:10:43.344Z,99313.22
2022-09-22T10:13:10.509Z,99311.34
2022-09-22T10:15:38.802Z,99308.63
2022-09-22T10:18:31.773Z,99308.59
2022-09-22T10:21:02.508Z,99296.38
2022-09-22T10:23:31.831Z,99303.16
2022-09-22T10:26:15.558Z,99301.25
2022-09-22T10:28:42.131Z,99294.06
2022-09-22T10:31:19.113Z,99292.16
2022-09-22T10:34:12.004Z,99293.84
2022-09-22T10:36:43.938Z,99296.38
2022-09-22T10:39:17.326Z,99300.50
2022-09-22T10:41:45.267Z,99298.63
2022-09-22T10:44:37.921Z,99296.88
2022-09-22T10:47:06.558Z,99289.88
2022-09-22T10:49:51.897Z,99290.63
2022-09-22T10:52:30.732Z,99292.34
2022-09-22T10:55:17.008Z,99289.72
2022-09-22T10:57:43.522Z,99293.06
2022-09-22T11:00:13.546Z,99293.81
2022-09-22T11:02:45.229Z,99284.22
2022-09-22T11:05:43.955Z,99280.91
2022-09-22T11:08:34.147Z,99283.47
2022-09-22T11:11:40.651Z,99278.56
2022-09-22T11:14:16.486Z,99274.47
2022-09-22T11:17:00.453Z,99271.56
2022-09-22T11:19:33.236Z,99273.22
2022-09-22T11:22:12.478Z,99277.63
2022-09-22T11:24:52.095Z,99269.06
2022-09-22T11:27:37.430Z,99279.69
2022-09-22T11:30:10.687Z,99271.13
2022-09-22T11:32:37.934Z,99267.78
2022-09-22T11:35:13.553Z,99271.22
2022-09-22T11:37:52.472Z,99272.06
2022-09-22T11:40:37.952Z,99273.13
2022-09-22T11:43:04.679Z,99279.38
2022-09-22T11:45:48.749Z,99271.50
2022-09-22T11:48:15.318Z,99268.81
2022-09-22T11:51:04.613Z,99268.81
2022-09-22T11:53:49.941Z,99259.38
2022-09-22T11:56:16.583Z,99250.72
2022-09-22T11:58:44.677Z,99250.78
2022-09-22T12:01:18.158Z,99257.81
2022-09-22T12:03:51.004Z,99254.47
2022-09-22T12:06:20.456Z,99256.25
2022-09-22T12:11:26.419Z,99237.75
2022-09-22T12:13:53.844Z,99235.91
2022-09-22T12:16:20.357Z,99240.38
2022-09-22T12:18:54.412Z,99245.75
2022-09-22T12:21:37.057Z,99255.34
2022-09-22T12:24:04.398Z,99250.06
2022-09-22T12:26:32.186Z,99237.75
2022-09-22T12:28:59.941Z,99251.09
2022-09-22T12:31:36.541Z,99247.16
2022-09-22T12:34:04.103Z,99249.88
2022-09-22T12:36:40.902Z,99237.69
2022-09-22T12:39:13.687Z,99239.31
2022-09-22T12:41:48.681Z,99237.41
2022-09-22T12:44:18.062Z,99227.50
2022-09-22T12:46:44.960Z,99230.75
2022-09-22T12:49:14.964Z,99216.69
2022-09-22T12:51:41.796Z,99219.03
2022-09-22T12:54:34.952Z,99217.94
2022-09-22T12:57:08.492Z,99218.47
2022-09-22T12:59:38.190Z,99219.53
2022-09-22T13:02:14.943Z,99217.81
2022-09-22T13:05:01.796Z,99217.22
2022-09-22T13:07:33.271Z,99219.28
2022-09-22T13:10:18.395Z,99224.50
2022-09-22T13:13:03.569Z,99230.03
2022-09-22T13:15:33.712Z,99221.75
2022-09-22T13:18:00.409Z,99225.59
2022-09-22T13:20:31.347Z,99225.97
2022-09-22T13:23:12.069Z,99222.81
2022-09-22T13:25:39.380Z,99223.16
2022-09-22T13:28:08.990Z,99219.91
2022-09-22T13:30:36.558Z,99218.38
2022-09-22T13:33:03.501Z,99223.84
2022-09-22T13:35:37.636Z,99229.22
2022-09-22T13:38:04.904Z,99226.75
2022-09-22T13:40:35.000Z,99232.97
2022-09-22T13:43:06.609Z,99238.34
2022-09-22T13:45:33.182Z,99236.72
2022-09-22T13:48:10.624Z,99233.31
2022-09-22T13:50:50.073Z,99234.09
2022-09-22T13:53:18.612Z,99238.28
2022-09-22T13:55:47.916Z,99238.09
2022-09-22T13:58:19.216Z,99236.22
2022-09-22T14:01:12.626Z,99237.75
2022-09-22T14:03:39.958Z,99234.19
2022-09-22T14:06:10.272Z,99241.19
2022-09-22T14:08:37.091Z,99239.66
2022-09-22T14:11:04.604Z,99251.19
2022-09-22T14:13:49.720Z,99238.34
2022-09-22T14:16:37.343Z,99243.81
2022-09-22T14:19:07.006Z,99241.34
2022-09-22T14:21:40.641Z,99249.25
2022-09-22T14:24:07.259Z,99252.81
2022-09-22T14:26:35.849Z,99258.19
2022-09-22T14:29:15.947Z,99253.13
2022-09-22T14:31:45.539Z,99256.75
2022-09-22T14:34:17.846Z,99251.66
2022-09-22T14:36:45.398Z,99256.91
2022-09-22T14:39:15.926Z,99243.91
2022-09-22T14:41:49.888Z,99244.84
2022-09-22T14:44:35.399Z,99252.72
2022-09-22T14:47:28.174Z,99241.63
2022-09-22T14:50:07.118Z,99245.31
2022-09-22T14:52:35.726Z,99242.03
2022-09-22T14:55:23.456Z,99231.81
2022-09-22T14:57:50.335Z,99230.22
2022-09-22T15:00:35.883Z,99233.84
2022-09-22T15:03:06.100Z,99238.38
2022-09-22T15:05:34.260Z,99232.47
2022-09-22T15:08:02.016Z,99229.09
2022-09-22T15:10:29.938Z,99230.94
2022-09-22T15:13:15.375Z,99237.09
2022-09-22T15:15:46.570Z,99244.13
2022-09-22T15:18:13.148Z,99234.66
2022-09-22T15:20:42.722Z,99240.84
2022-09-22T15:23:31.704Z,99239.22
2022-09-22T15:26:05.649Z,99240.13
2022-09-22T15:28:37.165Z,99238.47
2022-09-22T15:31:04.461Z,99237.66
2022-09-22T15:33:31.085Z,99237.69
2022-09-22T15:36:02.241Z,99242.16
2022-09-22T15:38:32.962Z,99243.97
2022-09-22T15:40:59.672Z,99232.75
2022-09-22T15:43:30.862Z,99240.63
2022-09-22T15:46:02.089Z,99242.41
2022-09-22T15:48:31.900Z,99247.72
2022-09-22T15:51:00.172Z,99249.53
2022-09-22T15:53:26.921Z,99259.13
2022-09-22T15:55:54.390Z,99258.25
2022-09-22T15:58:23.201Z,99260.91
2022-09-22T16:00:51.220Z,99259.19
2022-09-22T16:03:24.973Z,99261.75
2022-09-22T16:05:57.211Z,99269.56
2022-09-22T16:08:28.488Z,99275.56
2022-09-22T16:11:00.218Z,99273.84
2022-09-22T16:13:27.989Z,99284.25
2022-09-22T16:15:55.579Z,99280.81
2022-09-22T16:18:22.210Z,99280.91
2022-09-22T16:20:51.698Z,99277.41
2022-09-22T16:23:19.163Z,99262.66
2022-09-22T16:25:46.554Z,99259.97
2022-09-22T16:28:13.562Z,99259.06
2022-09-22T16:30:40.376Z,99256.41
2022-09-22T16:33:06.881Z,99256.38
2022-09-22T16:35:33.527Z,99251.19
2022-09-22T16:38:00.106Z,99248.63
2022-09-22T16:40:29.461Z,99252.97
2022-09-22T16:42:56.076Z,99253.84
2022-09-22T16:45:42.834Z,99256.44
2022-09-22T16:48:09.450Z,99254.75
2022-09-22T16:50:39.480Z,99252.13
2022-09-22T16:53:07.362Z,99247.78
2022-09-22T16:55:37.322Z,99246.81
2022-09-22T16:58:06.095Z,99255.44
2022-09-22T17:00:32.729Z,99250.22
2022-09-22T17:02:59.582Z,99246.72
2022-09-22T17:05:26.174Z,99244.06
2022-09-22T17:07:53.322Z,99240.56
2022-09-22T17:10:20.125Z,99246.59
2022-09-22T17:12:46.788Z,99244.00
2022-09-22T17:15:14.115Z,99243.19
2022-09-22T17:17:41.160Z,99244.03
2022-09-22T17:20:07.941Z,99245.78
2022-09-22T17:22:34.547Z,99239.75
2022-09-22T17:25:01.177Z,99238.97
2022-09-22T17:27:27.768Z,99240.66
2022-09-22T17:29:54.329Z,99247.53
2022-09-22T17:32:20.965Z,99244.88
2022-09-22T17:34:47.587Z,99249.19
2022-09-22T17:37:15.607Z,99242.22
2022-09-22T17:39:43.615Z,99251.75
2022-09-22T17:42:11.061Z,99242.16
2022-09-22T17:44:37.636Z,99244.78
2022-09-22T17:47:22.685Z,99243.84
2022-09-22T17:50:08.019Z,99245.56
2022-09-22T17:52:53.280Z,99249.09
2022-09-22T17:55:22.863Z,99245.63
2022-09-22T17:57:51.749Z,99242.97
2022-09-22T18:00:22.113Z,99246.44
2022-09-22T18:02:49.636Z,99253.41
2022-09-22T18:05:17.877Z,99242.16
2022-09-22T18:07:44.573Z,99249.94
2022-09-22T18:10:12.450Z,99251.69
2022-09-22T18:12:39.257Z,99240.44
2022-09-22T18:15:06.321Z,99242.19
2022-09-22T18:17:41.205Z,99240.47
2022-09-22T18:20:09.922Z,99242.22
2022-09-22T18:22:36.708Z,99241.38
2022-09-22T18:25:03.432Z,99241.41
2022-09-22T18:27:30.427Z,99241.44
2022-09-22T18:30:00.195Z,99239.75
2022-09-22T18:32:27.176Z,99246.72
2022-09-22T18:34:54.352Z,99244.13
2022-09-22T18:37:21.793Z,99242.41
2022-09-22T18:39:50.313Z,99242.41
2022-09-22T18:42:18.993Z,99245.88
2022-09-22T18:44:47.097Z,99247.66
2022-09-22T18:47:14.861Z,99247.72
2022-09-22T18:49:44.329Z,99252.91
2022-09-22T18:52:11.433Z,99259.78
2022-09-22T18:54:42.962Z,99257.06
2022-09-22T18:57:12.290Z,99258.72
2022-09-22T18:59:39.289Z,99266.47
2022-09-22T19:02:10.795Z,99263.00
2022-09-22T19:04:38.923Z,99255.22
2022-09-22T19:07:24.302Z,99253.59
2022-09-22T19:09:52.483Z,99253.78
2022-09-22T19:12:20.456Z,99260.78
2022-09-22T19:14:54.065Z,99251.38
2022-09-22T19:17:20.661Z,99247.13
2022-09-22T19:19:49.040Z,99255.00
2022-09-22T19:22:16.291Z,99251.63
2022-09-22T19:24:46.067Z,99255.97
2022-09-22T19:27:14.831Z,99248.19
2022-09-22T19:29:41.383Z,99252.53
2022-09-22T19:32:07.956Z,99248.22
2022-09-22T19:34:35.020Z,99246.53
2022-09-22T19:37:01.546Z,99249.13
2022-09-22T19:39:28.084Z,99238.75
2022-09-22T19:41:56.105Z,99238.84
2022-09-22T19:44:23.375Z,99235.44
2022-09-22T19:46:50.247Z,99247.59
2022-09-22T19:49:17.532Z,99245.00
2022-09-22T19:51:44.377Z,99238.13
2022-09-22T19:54:11.360Z,99245.91
2022-09-22T19:56:38.155Z,99238.13
2022-09-22T19:59:07.227Z,99241.66
2022-09-22T20:01:35.945Z,99239.09
2022-09-22T20:04:02.724Z,99237.34
2022-09-22T20:06:29.298Z,99239.00
2022-09-22T20:09:05.201Z,99234.63
2022-09-22T20:11:33.301Z,99231.13
2022-09-22T20:14:20.149Z,99224.16
2022-09-22T20:16:49.832Z,99227.63
2022-09-22T20:19:16.788Z,99225.00
2022-09-22T20:21:44.105Z,99231.91
2022-09-22T20:24:12.781Z,99231.81
2022-09-22T20:26:39.794Z,99225.72
2022-09-22T20:29:06.377Z,99227.38
2022-09-22T20:31:33.009Z,99226.41
2022-09-22T20:33:59.691Z,99222.03
2022-09-22T20:36:26.371Z,99218.56
2022-09-22T20:38:53.353Z,99220.28
2022-09-22T20:41:24.299Z,99223.78
2022-09-22T20:43:51.401Z,99218.53
2022-09-22T20:46:18.658Z,99227.19
2022-09-22T20:48:45.798Z,99228.91
2022-09-22T20:51:13.107Z,99227.19
2022-09-22T20:53:40.267Z,99220.28
2022-09-22T20:56:08.607Z,99222.00
2022-09-22T20:58:39.853Z,99228.00
2022-09-22T21:01:06.951Z,99232.28
2022-09-22T21:03:33.619Z,99230.53
2022-09-22T21:06:00.781Z,99231.38
2022-09-22T21:08:46.401Z,99225.31
2022-09-22T21:11:13.601Z,99221.88
2022-09-22T21:13:41.220Z,99224.47
2022-09-22T21:16:08.722Z,99218.41
2022-09-22T21:18:36.336Z,99222.78
2022-09-22T21:21:05.167Z,99219.34
2022-09-22T21:23:32.474Z,99224.47
2022-09-22T21:26:00.516Z,99227.16
2022-09-22T21:28:27.567Z,99216.81
2022-09-22T21:30:58.077Z,99222.03
2022-09-22T21:33:27.071Z,99225.47
2022-09-22T21:36:02.825Z,99224.56
2022-09-22T21:38:30.103Z,99224.44
2022-09-22T21:40:57.520Z,99224.41
2022-09-22T21:43:24.145Z,99227.03
2022-09-22T21:46:01.358Z,99230.56
2022-09-22T21:48:31.579Z,99228.75
2022-09-22T21:51:02.315Z,99222.47
2022-09-22T21:53:29.794Z,99226.66
2022-09-22T21:56:02.561Z,99224.94
2022-09-22T21:58:29.840Z,99231.94
2022-09-22T22:00:56.865Z,99221.72
2022-09-22T22:03:32.812Z,99221.03
2022-09-22T22:06:02.483Z,99215.16
2022-09-22T22:08:31.631Z,99211.81
2022-09-22T22:11:02.795Z,99208.56
2022-09-22T22:13:29.368Z,99208.66
2022-09-22T22:15:59.801Z,99210.41
2022-09-22T22:18:27.014Z,99214.81
2022-09-22T22:20:58.160Z,99219.19
2022-09-22T22:23:26.279Z,99211.44
2022-09-22T22:25:57.845Z,99214.00
2022-09-22T22:28:24.824Z,99203.63
2022-09-22T22:30:51.630Z,99201.00
2022-09-22T22:33:18.216Z,99208.75
2022-09-22T22:35:54.637Z,99205.31
2022-09-22T22:38:22.155Z,99207.00
2022-09-22T22:40:48.956Z,99206.94
2022-09-22T22:43:16.705Z,99199.13
2022-09-22T22:45:46.535Z,99199.94
2022-09-22T22:48:15.181Z,99197.38
2022-09-22T22:50:42.394Z,99196.59
2022-09-22T22:53:10.935Z,99197.56
2022-09-22T22:55:38.156Z,99196.72
2022-09-22T22:58:05.381Z,99194.94
2022-09-22T23:00:35.117Z,99191.41
2022-09-22T23:03:01.681Z,99193.13
2022-09-22T23:05:28.416Z,99193.06
2022-09-22T23:07:55.061Z,99188.75
2022-09-22T23:10:21.839Z,99187.94
2022-09-22T23:12:48.993Z,99187.94
2022-09-22T23:15:15.929Z,99187.00
2022-09-22T23:17:42.484Z,99189.59
2022-09-22T23:20:09.328Z,99188.78
2022-09-22T23:22:35.912Z,99194.94
2022-09-22T23:25:02.491Z,99184.56
2022-09-22T23:27:31.030Z,99188.09
2022-09-22T23:29:57.613Z,99181.22
2022-09-22T23:32:24.599Z,99183.00
2022-09-22T23:34:51.221Z,99183.03
2022-09-22T23:37:17.804Z,99179.63
2022-09-22T23:39:44.327Z,99187.41
2022-09-22T23:42:11.001Z,99184.75
2022-09-22T23:44:37.589Z,99178.66
2022-09-22T23:47:04.141Z,99172.56
2022-09-22T23:49:30.950Z,99173.44
2022-09-22T23:51:57.638Z,99176.09
2022-09-22T23:54:24.275Z,99177.91
2022-09-22T23:56:50.776Z,99180.53
2022-09-22T23:59:17.348Z,99177.13
